Terminal Aerodrome Forecast
Issued by NWS

Home | Current Version | Previous Version | Text Only | Print | Product List | Glossary On
Versions: 1 2 3 4 5 6 7 8 9 10 11 12 13 14 15 16 17 18 19 20 21 22 23 24 25
757
FTUS46 KSEW 280520
TAFSEA
TAF
KSEA 280520Z 2806/2912 30004KT P6SM SKC
     FM281000 18005KT P6SM BKN020 OVC030
     FM281300 20003KT P6SM BKN010 OVC020
     FM281900 22004KT P6SM SCT018 OVC030
     FM282200 25005KT P6SM SCT025 BKN035
     FM290100 31007KT P6SM BKN040
     FM290600 02007KT P6SM OVC030=

USA.gov is the U.S. government's official web portal to all federal, state and local government web resources and services.